sensor_id;sensor_type;location;lat;lon;timestamp;P1;durP1;ratioP1;P2;durP2;ratioP2
173;SDS011;75;48.784;9.364;2023-02-26T00:01:25;11.10;;;6.00;;
173;SDS011;75;48.784;9.364;2023-02-26T00:04:10;9.00;;;5.70;;
173;SDS011;75;48.784;9.364;2023-02-26T00:06:55;10.03;;;5.87;;
173;SDS011;75;48.784;9.364;2023-02-26T00:09:40;12.37;;;6.40;;
173;SDS011;75;48.784;9.364;2023-02-26T00:12:24;10.23;;;6.13;;
173;SDS011;75;48.784;9.364;2023-02-26T00:15:10;9.33;;;6.00;;
173;SDS011;75;48.784;9.364;2023-02-26T00:18:05;9.57;;;5.80;;
173;SDS011;75;48.784;9.364;2023-02-26T00:20:50;12.07;;;6.20;;
173;SDS011;75;48.784;9.364;2023-02-26T00:23:35;9.73;;;6.47;;
173;SDS011;75;48.784;9.364;2023-02-26T00:26:20;11.13;;;6.00;;
173;SDS011;75;48.784;9.364;2023-02-26T00:29:05;9.63;;;5.87;;
173;SDS011;75;48.784;9.364;2023-02-26T00:31:50;12.83;;;6.63;;
173;SDS011;75;48.784;9.364;2023-02-26T00:34:35;11.80;;;6.73;;
173;SDS011;75;48.784;9.364;2023-02-26T00:37:26;9.60;;;6.40;;
173;SDS011;75;48.784;9.364;2023-02-26T00:43:07;15.90;;;11.23;;
173;SDS011;75;48.784;9.364;2023-02-26T00:52:01;15.40;;;9.70;;
173;SDS011;75;48.784;9.364;2023-02-26T00:54:46;12.93;;;8.20;;
173;SDS011;75;48.784;9.364;2023-02-26T00:57:31;16.07;;;10.00;;
173;SDS011;75;48.784;9.364;2023-02-26T01:00:16;15.10;;;8.43;;
173;SDS011;75;48.784;9.364;2023-02-26T01:03:01;12.73;;;8.67;;
173;SDS011;75;48.784;9.364;2023-02-26T01:05:46;12.83;;;7.97;;
173;SDS011;75;48.784;9.364;2023-02-26T01:08:32;13.60;;;8.27;;
173;SDS011;75;48.784;9.364;2023-02-26T01:11:20;12.73;;;8.60;;
173;SDS011;75;48.784;9.364;2023-02-26T01:14:06;12.53;;;8.17;;
173;SDS011;75;48.784;9.364;2023-02-26T01:25:12;12.13;;;7.67;;
173;SDS011;75;48.784;9.364;2023-02-26T01:27:57;11.67;;;7.03;;
173;SDS011;75;48.784;9.364;2023-02-26T01:30:42;13.07;;;7.60;;
173;SDS011;75;48.784;9.364;2023-02-26T01:33:30;10.70;;;6.70;;
173;SDS011;75;48.784;9.364;2023-02-26T01:36:18;15.13;;;8.47;;
173;SDS011;75;48.784;9.364;2023-02-26T01:41:53;11.77;;;7.87;;
173;SDS011;75;48.784;9.364;2023-02-26T01:44:40;15.20;;;8.13;;
173;SDS011;75;48.784;9.364;2023-02-26T01:47:38;12.30;;;7.20;;
173;SDS011;75;48.784;9.364;2023-02-26T01:50:24;12.83;;;8.20;;
173;SDS011;75;48.784;9.364;2023-02-26T01:56:02;11.63;;;6.77;;
173;SDS011;75;48.784;9.364;2023-02-26T01:58:48;13.63;;;7.60;;
173;SDS011;75;48.784;9.364;2023-02-26T02:01:36;13.93;;;7.83;;
173;SDS011;75;48.784;9.364;2023-02-26T02:04:22;13.60;;;7.50;;
173;SDS011;75;48.784;9.364;2023-02-26T02:07:08;13.27;;;7.80;;
173;SDS011;75;48.784;9.364;2023-02-26T02:09:53;12.87;;;7.23;;
173;SDS011;75;48.784;9.364;2023-02-26T02:12:43;13.27;;;8.10;;
173;SDS011;75;48.784;9.364;2023-02-26T02:18:30;14.07;;;9.20;;
173;SDS011;75;48.784;9.364;2023-02-26T02:21:21;13.30;;;8.70;;
173;SDS011;75;48.784;9.364;2023-02-26T02:27:29;14.13;;;9.07;;
173;SDS011;75;48.784;9.364;2023-02-26T02:30:25;16.10;;;8.67;;
173;SDS011;75;48.784;9.364;2023-02-26T02:33:12;12.70;;;7.90;;
173;SDS011;75;48.784;9.364;2023-02-26T02:36:00;16.30;;;8.97;;
173;SDS011;75;48.784;9.364;2023-02-26T02:38:47;15.00;;;8.83;;
173;SDS011;75;48.784;9.364;2023-02-26T02:41:46;14.33;;;9.53;;
173;SDS011;75;48.784;9.364;2023-02-26T02:44:33;15.23;;;8.80;;
173;SDS011;75;48.784;9.364;2023-02-26T02:47:19;16.57;;;9.17;;
173;SDS011;75;48.784;9.364;2023-02-26T02:53:17;18.40;;;10.07;;
173;SDS011;75;48.784;9.364;2023-02-26T02:56:13;16.00;;;9.90;;
173;SDS011;75;48.784;9.364;2023-02-26T02:59:03;13.33;;;8.03;;
173;SDS011;75;48.784;9.364;2023-02-26T03:01:51;14.90;;;8.40;;
173;SDS011;75;48.784;9.364;2023-02-26T03:04:37;14.37;;;9.17;;
173;SDS011;75;48.784;9.364;2023-02-26T03:07:23;17.57;;;9.40;;
173;SDS011;75;48.784;9.364;2023-02-26T03:10:08;17.40;;;10.10;;
173;SDS011;75;48.784;9.364;2023-02-26T03:12:53;19.50;;;10.30;;
173;SDS011;75;48.784;9.364;2023-02-26T03:15:41;14.30;;;9.03;;
173;SDS011;75;48.784;9.364;2023-02-26T03:24:39;17.10;;;9.40;;
173;SDS011;75;48.784;9.364;2023-02-26T03:27:41;18.83;;;8.80;;
173;SDS011;75;48.784;9.364;2023-02-26T03:30:33;20.57;;;9.63;;
173;SDS011;75;48.784;9.364;2023-02-26T03:36:25;16.27;;;10.13;;
173;SDS011;75;48.784;9.364;2023-02-26T03:39:19;15.00;;;8.20;;
173;SDS011;75;48.784;9.364;2023-02-26T03:45:11;20.50;;;10.20;;
173;SDS011;75;48.784;9.364;2023-02-26T03:47:57;17.10;;;8.07;;
173;SDS011;75;48.784;9.364;2023-02-26T03:50:44;17.50;;;9.10;;
173;SDS011;75;48.784;9.364;2023-02-26T03:53:30;15.10;;;9.00;;
173;SDS011;75;48.784;9.364;2023-02-26T03:56:33;15.47;;;9.20;;
173;SDS011;75;48.784;9.364;2023-02-26T03:59:18;16.27;;;8.40;;
173;SDS011;75;48.784;9.364;2023-02-26T04:02:05;17.50;;;9.57;;
173;SDS011;75;48.784;9.364;2023-02-26T04:04:54;15.70;;;8.83;;
173;SDS011;75;48.784;9.364;2023-02-26T04:07:40;16.33;;;8.37;;
173;SDS011;75;48.784;9.364;2023-02-26T04:10:31;18.80;;;8.67;;
173;SDS011;75;48.784;9.364;2023-02-26T04:13:17;16.30;;;8.17;;
173;SDS011;75;48.784;9.364;2023-02-26T04:16:02;13.80;;;9.27;;
173;SDS011;75;48.784;9.364;2023-02-26T04:18:46;14.90;;;8.03;;
173;SDS011;75;48.784;9.364;2023-02-26T04:21:31;13.10;;;8.30;;
173;SDS011;75;48.784;9.364;2023-02-26T04:24:16;15.50;;;7.70;;
173;SDS011;75;48.784;9.364;2023-02-26T04:27:00;17.37;;;8.60;;
173;SDS011;75;48.784;9.364;2023-02-26T04:29:45;15.00;;;9.20;;
173;SDS011;75;48.784;9.364;2023-02-26T04:32:30;13.83;;;8.00;;
173;SDS011;75;48.784;9.364;2023-02-26T04:35:15;15.20;;;8.50;;
173;SDS011;75;48.784;9.364;2023-02-26T04:37:59;14.63;;;8.37;;
173;SDS011;75;48.784;9.364;2023-02-26T04:40:44;17.10;;;9.00;;
173;SDS011;75;48.784;9.364;2023-02-26T04:43:30;14.17;;;7.93;;
173;SDS011;75;48.784;9.364;2023-02-26T04:46:14;18.40;;;10.00;;
173;SDS011;75;48.784;9.364;2023-02-26T04:48:59;16.23;;;9.80;;
173;SDS011;75;48.784;9.364;2023-02-26T04:51:43;17.23;;;8.93;;
173;SDS011;75;48.784;9.364;2023-02-26T04:54:28;16.93;;;10.00;;
173;SDS011;75;48.784;9.364;2023-02-26T04:57:13;21.17;;;9.20;;
173;SDS011;75;48.784;9.364;2023-02-26T04:59:57;14.93;;;8.00;;
173;SDS011;75;48.784;9.364;2023-02-26T05:02:42;14.30;;;7.07;;
173;SDS011;75;48.784;9.364;2023-02-26T05:05:27;16.80;;;8.17;;
173;SDS011;75;48.784;9.364;2023-02-26T05:08:12;14.70;;;8.20;;
173;SDS011;75;48.784;9.364;2023-02-26T05:10:57;13.33;;;6.60;;
173;SDS011;75;48.784;9.364;2023-02-26T05:13:41;13.80;;;8.17;;
173;SDS011;75;48.784;9.364;2023-02-26T05:16:26;13.77;;;7.50;;
173;SDS011;75;48.784;9.364;2023-02-26T05:19:11;15.03;;;7.57;;
173;SDS011;75;48.784;9.364;2023-02-26T05:21:55;13.60;;;7.07;;
173;SDS011;75;48.784;9.364;2023-02-26T05:24:40;15.60;;;8.47;;
173;SDS011;75;48.784;9.364;2023-02-26T05:27:24;15.33;;;8.50;;
173;SDS011;75;48.784;9.364;2023-02-26T05:30:10;15.20;;;9.60;;
173;SDS011;75;48.784;9.364;2023-02-26T05:32:55;15.47;;;9.03;;
173;SDS011;75;48.784;9.364;2023-02-26T05:35:40;16.20;;;8.40;;
173;SDS011;75;48.784;9.364;2023-02-26T05:38:25;14.13;;;7.70;;
173;SDS011;75;48.784;9.364;2023-02-26T05:41:09;18.80;;;8.70;;
173;SDS011;75;48.784;9.364;2023-02-26T05:43:54;16.63;;;9.10;;
173;SDS011;75;48.784;9.364;2023-02-26T05:46:38;15.53;;;9.10;;
173;SDS011;75;48.784;9.364;2023-02-26T05:49:23;16.70;;;8.90;;
173;SDS011;75;48.784;9.364;2023-02-26T05:52:08;16.50;;;8.60;;
173;SDS011;75;48.784;9.364;2023-02-26T05:54:53;16.53;;;7.60;;
173;SDS011;75;48.784;9.364;2023-02-26T05:57:38;13.87;;;8.30;;
173;SDS011;75;48.784;9.364;2023-02-26T06:00:23;14.70;;;8.10;;
173;SDS011;75;48.784;9.364;2023-02-26T06:03:08;16.80;;;7.27;;
173;SDS011;75;48.784;9.364;2023-02-26T06:05:53;15.80;;;8.30;;
173;SDS011;75;48.784;9.364;2023-02-26T06:08:37;19.20;;;9.03;;
173;SDS011;75;48.784;9.364;2023-02-26T06:11:22;19.10;;;8.80;;
173;SDS011;75;48.784;9.364;2023-02-26T06:14:07;17.27;;;7.50;;
173;SDS011;75;48.784;9.364;2023-02-26T06:16:51;19.53;;;7.60;;
173;SDS011;75;48.784;9.364;2023-02-26T06:19:36;15.20;;;8.40;;
173;SDS011;75;48.784;9.364;2023-02-26T06:22:21;16.10;;;8.23;;
173;SDS011;75;48.784;9.364;2023-02-26T06:25:06;15.47;;;9.10;;
173;SDS011;75;48.784;9.364;2023-02-26T06:27:51;20.90;;;10.17;;
173;SDS011;75;48.784;9.364;2023-02-26T06:30:35;19.17;;;10.50;;
173;SDS011;75;48.784;9.364;2023-02-26T06:33:20;34.77;;;18.33;;
173;SDS011;75;48.784;9.364;2023-02-26T06:36:05;20.93;;;11.90;;
173;SDS011;75;48.784;9.364;2023-02-26T06:38:51;21.20;;;11.03;;
173;SDS011;75;48.784;9.364;2023-02-26T06:41:35;23.23;;;11.40;;
173;SDS011;75;48.784;9.364;2023-02-26T06:44:20;18.13;;;9.73;;
173;SDS011;75;48.784;9.364;2023-02-26T06:47:04;27.30;;;11.90;;
173;SDS011;75;48.784;9.364;2023-02-26T06:49:50;26.70;;;15.30;;
173;SDS011;75;48.784;9.364;2023-02-26T06:52:35;21.00;;;12.83;;
173;SDS011;75;48.784;9.364;2023-02-26T06:55:19;21.60;;;14.10;;
173;SDS011;75;48.784;9.364;2023-02-26T06:58:04;21.63;;;13.70;;
173;SDS011;75;48.784;9.364;2023-02-26T07:00:48;22.70;;;13.40;;
173;SDS011;75;48.784;9.364;2023-02-26T07:03:33;24.37;;;13.50;;
173;SDS011;75;48.784;9.364;2023-02-26T07:06:18;22.43;;;12.50;;
173;SDS011;75;48.784;9.364;2023-02-26T07:09:03;17.93;;;11.13;;
173;SDS011;75;48.784;9.364;2023-02-26T07:11:47;21.27;;;13.27;;
173;SDS011;75;48.784;9.364;2023-02-26T07:14:33;16.07;;;11.10;;
173;SDS011;75;48.784;9.364;2023-02-26T07:17:17;18.30;;;10.77;;
173;SDS011;75;48.784;9.364;2023-02-26T07:20:05;19.80;;;13.67;;
173;SDS011;75;48.784;9.364;2023-02-26T07:22:53;22.23;;;15.73;;
173;SDS011;75;48.784;9.364;2023-02-26T07:25:37;19.23;;;13.90;;
173;SDS011;75;48.784;9.364;2023-02-26T07:28:22;20.23;;;14.27;;
173;SDS011;75;48.784;9.364;2023-02-26T07:31:07;22.20;;;16.10;;
173;SDS011;75;48.784;9.364;2023-02-26T07:33:52;22.30;;;17.30;;
173;SDS011;75;48.784;9.364;2023-02-26T07:36:36;25.20;;;16.07;;
173;SDS011;75;48.784;9.364;2023-02-26T07:39:21;23.20;;;14.20;;
173;SDS011;75;48.784;9.364;2023-02-26T07:42:06;11.90;;;7.97;;
173;SDS011;75;48.784;9.364;2023-02-26T07:44:51;14.33;;;7.93;;
173;SDS011;75;48.784;9.364;2023-02-26T07:47:36;13.80;;;8.27;;
173;SDS011;75;48.784;9.364;2023-02-26T07:50:21;14.67;;;9.10;;
173;SDS011;75;48.784;9.364;2023-02-26T07:53:08;13.03;;;6.63;;
173;SDS011;75;48.784;9.364;2023-02-26T07:55:52;10.13;;;6.80;;
173;SDS011;75;48.784;9.364;2023-02-26T07:58:37;11.90;;;6.10;;
173;SDS011;75;48.784;9.364;2023-02-26T08:01:23;9.87;;;6.60;;
173;SDS011;75;48.784;9.364;2023-02-26T08:04:08;10.17;;;5.83;;
173;SDS011;75;48.784;9.364;2023-02-26T08:06:52;11.80;;;6.97;;
173;SDS011;75;48.784;9.364;2023-02-26T08:09:37;11.73;;;7.10;;
173;SDS011;75;48.784;9.364;2023-02-26T08:12:22;12.27;;;8.33;;
173;SDS011;75;48.784;9.364;2023-02-26T08:15:06;10.13;;;5.83;;
173;SDS011;75;48.784;9.364;2023-02-26T08:17:52;38.70;;;22.90;;
173;SDS011;75;48.784;9.364;2023-02-26T08:20:36;20.63;;;13.30;;
173;SDS011;75;48.784;9.364;2023-02-26T08:23:21;18.40;;;12.70;;
173;SDS011;75;48.784;9.364;2023-02-26T08:26:07;12.77;;;8.10;;
173;SDS011;75;48.784;9.364;2023-02-26T08:28:53;12.90;;;8.30;;
173;SDS011;75;48.784;9.364;2023-02-26T08:31:38;15.50;;;7.93;;
173;SDS011;75;48.784;9.364;2023-02-26T08:34:22;7.83;;;4.70;;
173;SDS011;75;48.784;9.364;2023-02-26T08:37:07;10.53;;;5.13;;
173;SDS011;75;48.784;9.364;2023-02-26T08:39:54;10.07;;;5.93;;
173;SDS011;75;48.784;9.364;2023-02-26T08:42:39;10.67;;;5.90;;
173;SDS011;75;48.784;9.364;2023-02-26T08:45:24;15.73;;;9.73;;
173;SDS011;75;48.784;9.364;2023-02-26T08:48:08;12.67;;;8.97;;
173;SDS011;75;48.784;9.364;2023-02-26T08:50:53;7.97;;;5.70;;
173;SDS011;75;48.784;9.364;2023-02-26T08:53:38;13.50;;;7.33;;
173;SDS011;75;48.784;9.364;2023-02-26T08:56:23;9.27;;;5.20;;
173;SDS011;75;48.784;9.364;2023-02-26T08:59:07;9.57;;;4.67;;
173;SDS011;75;48.784;9.364;2023-02-26T09:01:56;8.90;;;4.80;;
173;SDS011;75;48.784;9.364;2023-02-26T09:04:40;9.40;;;5.10;;
173;SDS011;75;48.784;9.364;2023-02-26T09:07:25;12.10;;;5.63;;
173;SDS011;75;48.784;9.364;2023-02-26T09:10:10;11.23;;;5.60;;
173;SDS011;75;48.784;9.364;2023-02-26T09:12:55;7.67;;;5.47;;
173;SDS011;75;48.784;9.364;2023-02-26T09:15:40;12.80;;;6.83;;
173;SDS011;75;48.784;9.364;2023-02-26T09:18:24;7.27;;;4.73;;
173;SDS011;75;48.784;9.364;2023-02-26T09:21:09;14.73;;;9.80;;
173;SDS011;75;48.784;9.364;2023-02-26T09:23:54;7.83;;;4.70;;
173;SDS011;75;48.784;9.364;2023-02-26T09:26:38;8.33;;;4.87;;
173;SDS011;75;48.784;9.364;2023-02-26T09:29:23;8.83;;;5.53;;
173;SDS011;75;48.784;9.364;2023-02-26T09:32:08;7.50;;;5.13;;
173;SDS011;75;48.784;9.364;2023-02-26T09:34:53;7.77;;;4.70;;
173;SDS011;75;48.784;9.364;2023-02-26T09:37:38;8.30;;;5.50;;
173;SDS011;75;48.784;9.364;2023-02-26T09:41:13;10.03;;;5.10;;
173;SDS011;75;48.784;9.364;2023-02-26T09:43:41;10.23;;;5.10;;
173;SDS011;75;48.784;9.364;2023-02-26T09:46:40;7.77;;;4.47;;
173;SDS011;75;48.784;9.364;2023-02-26T09:54:56;6.77;;;4.10;;
173;SDS011;75;48.784;9.364;2023-02-26T09:57:42;7.40;;;5.13;;
173;SDS011;75;48.784;9.364;2023-02-26T10:00:31;8.27;;;3.93;;
173;SDS011;75;48.784;9.364;2023-02-26T10:03:29;6.77;;;4.17;;
173;SDS011;75;48.784;9.364;2023-02-26T10:06:23;6.13;;;4.20;;
173;SDS011;75;48.784;9.364;2023-02-26T10:09:19;7.57;;;4.57;;
173;SDS011;75;48.784;9.364;2023-02-26T10:12:24;8.60;;;4.40;;
173;SDS011;75;48.784;9.364;2023-02-26T10:18:02;6.80;;;4.30;;
173;SDS011;75;48.784;9.364;2023-02-26T10:35:05;6.83;;;4.20;;
173;SDS011;75;48.784;9.364;2023-02-26T10:37:55;10.23;;;6.30;;
173;SDS011;75;48.784;9.364;2023-02-26T10:46:26;7.63;;;4.20;;
173;SDS011;75;48.784;9.364;2023-02-26T10:52:16;5.23;;;3.60;;
173;SDS011;75;48.784;9.364;2023-02-26T10:58:12;6.13;;;4.60;;
173;SDS011;75;48.784;9.364;2023-02-26T11:00:57;9.87;;;4.33;;
173;SDS011;75;48.784;9.364;2023-02-26T11:03:43;7.50;;;4.97;;
173;SDS011;75;48.784;9.364;2023-02-26T11:06:30;5.80;;;4.70;;
173;SDS011;75;48.784;9.364;2023-02-26T11:09:18;5.37;;;3.90;;
173;SDS011;75;48.784;9.364;2023-02-26T11:14:55;7.10;;;4.07;;
173;SDS011;75;48.784;9.364;2023-02-26T11:17:39;5.03;;;3.60;;
173;SDS011;75;48.784;9.364;2023-02-26T11:20:36;5.70;;;3.67;;
173;SDS011;75;48.784;9.364;2023-02-26T11:23:22;5.77;;;4.00;;
173;SDS011;75;48.784;9.364;2023-02-26T11:26:13;5.77;;;3.50;;
173;SDS011;75;48.784;9.364;2023-02-26T11:28:59;8.80;;;4.23;;
173;SDS011;75;48.784;9.364;2023-02-26T11:31:46;7.27;;;3.90;;
173;SDS011;75;48.784;9.364;2023-02-26T11:34:31;6.30;;;3.73;;
173;SDS011;75;48.784;9.364;2023-02-26T11:37:28;5.73;;;3.80;;
173;SDS011;75;48.784;9.364;2023-02-26T11:40:21;5.53;;;3.93;;
173;SDS011;75;48.784;9.364;2023-02-26T11:43:07;6.10;;;3.70;;
173;SDS011;75;48.784;9.364;2023-02-26T11:45:58;5.10;;;3.83;;
173;SDS011;75;48.784;9.364;2023-02-26T11:48:47;5.93;;;4.17;;
173;SDS011;75;48.784;9.364;2023-02-26T11:51:32;8.60;;;6.40;;
173;SDS011;75;48.784;9.364;2023-02-26T11:54:22;7.53;;;4.40;;
173;SDS011;75;48.784;9.364;2023-02-26T11:57:15;4.90;;;3.63;;
173;SDS011;75;48.784;9.364;2023-02-26T12:00:02;6.47;;;4.40;;
173;SDS011;75;48.784;9.364;2023-02-26T12:03:00;7.03;;;3.83;;
173;SDS011;75;48.784;9.364;2023-02-26T12:05:47;4.40;;;3.20;;
173;SDS011;75;48.784;9.364;2023-02-26T12:08:33;4.40;;;3.23;;
173;SDS011;75;48.784;9.364;2023-02-26T12:11:35;4.63;;;3.60;;
173;SDS011;75;48.784;9.364;2023-02-26T12:20:14;5.20;;;3.67;;
173;SDS011;75;48.784;9.364;2023-02-26T12:26:06;5.17;;;4.20;;
173;SDS011;75;48.784;9.364;2023-02-26T12:29:00;5.70;;;3.37;;
173;SDS011;75;48.784;9.364;2023-02-26T12:43:53;5.70;;;3.37;;
173;SDS011;75;48.784;9.364;2023-02-26T12:49:41;5.60;;;3.70;;
173;SDS011;75;48.784;9.364;2023-02-26T12:55:27;3.97;;;3.20;;
173;SDS011;75;48.784;9.364;2023-02-26T13:06:54;4.70;;;3.40;;
173;SDS011;75;48.784;9.364;2023-02-26T13:09:59;4.60;;;3.10;;
173;SDS011;75;48.784;9.364;2023-02-26T13:12:51;4.93;;;3.30;;
173;SDS011;75;48.784;9.364;2023-02-26T13:15:53;3.60;;;2.97;;
173;SDS011;75;48.784;9.364;2023-02-26T13:18:46;4.50;;;3.23;;
173;SDS011;75;48.784;9.364;2023-02-26T13:21:34;3.90;;;2.93;;
173;SDS011;75;48.784;9.364;2023-02-26T13:24:24;3.43;;;2.77;;
173;SDS011;75;48.784;9.364;2023-02-26T13:27:10;3.73;;;2.73;;
173;SDS011;75;48.784;9.364;2023-02-26T13:30:00;3.23;;;2.40;;
173;SDS011;75;48.784;9.364;2023-02-26T13:32:47;3.30;;;2.30;;
173;SDS011;75;48.784;9.364;2023-02-26T13:35:35;4.10;;;2.60;;
173;SDS011;75;48.784;9.364;2023-02-26T13:44:22;5.70;;;3.40;;
173;SDS011;75;48.784;9.364;2023-02-26T13:47:23;4.07;;;3.03;;
173;SDS011;75;48.784;9.364;2023-02-26T13:53:02;3.83;;;2.70;;
173;SDS011;75;48.784;9.364;2023-02-26T13:55:48;5.90;;;3.27;;
173;SDS011;75;48.784;9.364;2023-02-26T13:58:34;4.93;;;3.27;;
173;SDS011;75;48.784;9.364;2023-02-26T14:01:25;3.57;;;2.87;;
173;SDS011;75;48.784;9.364;2023-02-26T14:10:28;5.93;;;4.57;;
173;SDS011;75;48.784;9.364;2023-02-26T14:13:17;5.10;;;3.70;;
173;SDS011;75;48.784;9.364;2023-02-26T14:16:12;9.70;;;7.03;;
173;SDS011;75;48.784;9.364;2023-02-26T14:25:13;3.37;;;2.60;;
173;SDS011;75;48.784;9.364;2023-02-26T14:28:20;9.00;;;3.60;;
173;SDS011;75;48.784;9.364;2023-02-26T14:31:15;5.73;;;4.47;;
173;SDS011;75;48.784;9.364;2023-02-26T14:34:10;4.10;;;2.87;;
173;SDS011;75;48.784;9.364;2023-02-26T14:36:57;3.63;;;2.53;;
173;SDS011;75;48.784;9.364;2023-02-26T14:39:44;3.63;;;2.90;;
173;SDS011;75;48.784;9.364;2023-02-26T14:45:24;5.03;;;3.20;;
173;SDS011;75;48.784;9.364;2023-02-26T14:48:14;4.80;;;3.13;;
173;SDS011;75;48.784;9.364;2023-02-26T14:56:55;5.30;;;2.87;;
173;SDS011;75;48.784;9.364;2023-02-26T15:06:10;6.80;;;5.47;;
173;SDS011;75;48.784;9.364;2023-02-26T15:09:05;4.40;;;3.20;;
173;SDS011;75;48.784;9.364;2023-02-26T15:18:34;11.40;;;4.70;;
173;SDS011;75;48.784;9.364;2023-02-26T15:23:43;3.87;;;3.30;;
173;SDS011;75;48.784;9.364;2023-02-26T15:26:36;4.23;;;2.90;;
173;SDS011;75;48.784;9.364;2023-02-26T15:29:26;6.90;;;4.53;;
173;SDS011;75;48.784;9.364;2023-02-26T15:32:13;5.77;;;3.13;;
173;SDS011;75;48.784;9.364;2023-02-26T15:37:56;4.50;;;2.90;;
173;SDS011;75;48.784;9.364;2023-02-26T15:40:43;6.50;;;3.50;;
173;SDS011;75;48.784;9.364;2023-02-26T15:43:28;4.90;;;3.67;;
173;SDS011;75;48.784;9.364;2023-02-26T15:46:13;5.50;;;3.90;;
173;SDS011;75;48.784;9.364;2023-02-26T15:49:00;5.07;;;3.50;;
173;SDS011;75;48.784;9.364;2023-02-26T15:51:46;6.93;;;4.00;;
173;SDS011;75;48.784;9.364;2023-02-26T15:54:41;5.90;;;3.00;;
173;SDS011;75;48.784;9.364;2023-02-26T15:57:26;4.87;;;3.23;;
173;SDS011;75;48.784;9.364;2023-02-26T16:00:14;4.97;;;3.37;;
173;SDS011;75;48.784;9.364;2023-02-26T16:03:00;5.80;;;3.30;;
173;SDS011;75;48.784;9.364;2023-02-26T16:05:44;4.20;;;3.20;;
173;SDS011;75;48.784;9.364;2023-02-26T16:08:29;4.90;;;3.50;;
173;SDS011;75;48.784;9.364;2023-02-26T16:11:14;10.93;;;4.60;;
173;SDS011;75;48.784;9.364;2023-02-26T16:13:59;10.10;;;6.30;;
173;SDS011;75;48.784;9.364;2023-02-26T16:16:48;4.60;;;3.00;;
173;SDS011;75;48.784;9.364;2023-02-26T16:19:37;3.60;;;2.70;;
173;SDS011;75;48.784;9.364;2023-02-26T16:22:35;6.40;;;3.40;;
173;SDS011;75;48.784;9.364;2023-02-26T16:25:28;5.00;;;2.47;;
173;SDS011;75;48.784;9.364;2023-02-26T16:28:15;20.07;;;6.30;;
173;SDS011;75;48.784;9.364;2023-02-26T16:31:01;6.03;;;3.67;;
173;SDS011;75;48.784;9.364;2023-02-26T16:34:00;4.70;;;2.67;;
173;SDS011;75;48.784;9.364;2023-02-26T16:36:45;4.93;;;3.57;;
173;SDS011;75;48.784;9.364;2023-02-26T16:39:30;5.30;;;3.20;;
173;SDS011;75;48.784;9.364;2023-02-26T16:42:20;4.30;;;2.80;;
173;SDS011;75;48.784;9.364;2023-02-26T16:48:11;5.30;;;2.90;;
173;SDS011;75;48.784;9.364;2023-02-26T16:50:58;5.27;;;3.37;;
173;SDS011;75;48.784;9.364;2023-02-26T16:53:48;5.20;;;3.30;;
173;SDS011;75;48.784;9.364;2023-02-26T16:56:34;5.77;;;3.33;;
173;SDS011;75;48.784;9.364;2023-02-26T16:59:23;5.00;;;3.27;;
173;SDS011;75;48.784;9.364;2023-02-26T17:02:11;6.07;;;3.60;;
173;SDS011;75;48.784;9.364;2023-02-26T17:04:58;3.90;;;2.73;;
173;SDS011;75;48.784;9.364;2023-02-26T17:07:48;3.50;;;2.67;;
173;SDS011;75;48.784;9.364;2023-02-26T17:10:43;4.30;;;2.77;;
173;SDS011;75;48.784;9.364;2023-02-26T17:13:29;5.00;;;3.17;;
173;SDS011;75;48.784;9.364;2023-02-26T17:16:14;4.10;;;2.53;;
173;SDS011;75;48.784;9.364;2023-02-26T17:19:01;3.83;;;2.50;;
173;SDS011;75;48.784;9.364;2023-02-26T17:21:47;4.70;;;2.87;;
173;SDS011;75;48.784;9.364;2023-02-26T17:24:33;4.93;;;3.07;;
173;SDS011;75;48.784;9.364;2023-02-26T17:30:32;4.20;;;3.00;;
173;SDS011;75;48.784;9.364;2023-02-26T17:33:17;3.20;;;2.70;;
173;SDS011;75;48.784;9.364;2023-02-26T17:36:03;5.37;;;2.90;;
173;SDS011;75;48.784;9.364;2023-02-26T17:38:48;4.70;;;3.00;;
173;SDS011;75;48.784;9.364;2023-02-26T17:41:33;5.17;;;3.40;;
173;SDS011;75;48.784;9.364;2023-02-26T17:44:17;5.53;;;3.37;;
173;SDS011;75;48.784;9.364;2023-02-26T17:47:02;5.20;;;3.20;;
173;SDS011;75;48.784;9.364;2023-02-26T17:49:47;5.77;;;3.50;;
173;SDS011;75;48.784;9.364;2023-02-26T17:52:32;6.03;;;3.87;;
173;SDS011;75;48.784;9.364;2023-02-26T17:55:16;4.60;;;3.47;;
173;SDS011;75;48.784;9.364;2023-02-26T17:58:01;4.57;;;3.00;;
173;SDS011;75;48.784;9.364;2023-02-26T18:00:46;5.37;;;3.10;;
173;SDS011;75;48.784;9.364;2023-02-26T18:03:35;4.50;;;3.07;;
173;SDS011;75;48.784;9.364;2023-02-26T18:06:22;3.70;;;2.80;;
173;SDS011;75;48.784;9.364;2023-02-26T18:09:09;4.20;;;2.70;;
173;SDS011;75;48.784;9.364;2023-02-26T18:11:54;6.37;;;3.10;;
173;SDS011;75;48.784;9.364;2023-02-26T18:14:38;5.10;;;3.17;;
173;SDS011;75;48.784;9.364;2023-02-26T18:17:26;8.13;;;5.03;;
173;SDS011;75;48.784;9.364;2023-02-26T18:20:14;4.87;;;2.90;;
173;SDS011;75;48.784;9.364;2023-02-26T18:22:59;6.37;;;3.93;;
173;SDS011;75;48.784;9.364;2023-02-26T18:25:45;4.30;;;2.90;;
173;SDS011;75;48.784;9.364;2023-02-26T18:28:30;4.77;;;3.03;;
173;SDS011;75;48.784;9.364;2023-02-26T18:31:15;6.37;;;3.67;;
173;SDS011;75;48.784;9.364;2023-02-26T18:34:00;6.07;;;3.70;;
173;SDS011;75;48.784;9.364;2023-02-26T18:36:45;8.00;;;4.10;;
173;SDS011;75;48.784;9.364;2023-02-26T18:39:31;6.03;;;3.70;;
173;SDS011;75;48.784;9.364;2023-02-26T18:45:04;5.90;;;4.13;;
173;SDS011;75;48.784;9.364;2023-02-26T18:47:49;6.70;;;4.30;;
173;SDS011;75;48.784;9.364;2023-02-26T18:50:34;7.17;;;4.10;;
173;SDS011;75;48.784;9.364;2023-02-26T18:53:19;5.17;;;3.30;;
173;SDS011;75;48.784;9.364;2023-02-26T18:56:06;4.70;;;3.30;;
173;SDS011;75;48.784;9.364;2023-02-26T18:58:50;4.40;;;3.20;;
173;SDS011;75;48.784;9.364;2023-02-26T19:01:35;5.10;;;3.10;;
173;SDS011;75;48.784;9.364;2023-02-26T19:04:20;4.10;;;3.13;;
173;SDS011;75;48.784;9.364;2023-02-26T19:07:05;5.47;;;3.17;;
173;SDS011;75;48.784;9.364;2023-02-26T19:09:50;4.47;;;3.17;;
173;SDS011;75;48.784;9.364;2023-02-26T19:12:34;6.90;;;3.40;;
173;SDS011;75;48.784;9.364;2023-02-26T19:15:19;5.13;;;3.30;;
173;SDS011;75;48.784;9.364;2023-02-26T19:18:03;5.43;;;3.20;;
173;SDS011;75;48.784;9.364;2023-02-26T19:20:48;6.40;;;3.20;;
173;SDS011;75;48.784;9.364;2023-02-26T19:23:33;5.13;;;3.03;;
173;SDS011;75;48.784;9.364;2023-02-26T19:26:18;3.93;;;2.90;;
173;SDS011;75;48.784;9.364;2023-02-26T19:29:06;7.80;;;4.97;;
173;SDS011;75;48.784;9.364;2023-02-26T19:31:51;4.43;;;3.07;;
173;SDS011;75;48.784;9.364;2023-02-26T19:34:36;7.50;;;4.50;;
173;SDS011;75;48.784;9.364;2023-02-26T19:37:21;7.07;;;4.30;;
173;SDS011;75;48.784;9.364;2023-02-26T19:40:06;7.60;;;4.27;;
173;SDS011;75;48.784;9.364;2023-02-26T19:42:53;11.90;;;5.20;;
173;SDS011;75;48.784;9.364;2023-02-26T19:45:37;5.63;;;3.10;;
173;SDS011;75;48.784;9.364;2023-02-26T19:48:22;3.80;;;2.93;;
173;SDS011;75;48.784;9.364;2023-02-26T19:51:07;3.90;;;2.90;;
173;SDS011;75;48.784;9.364;2023-02-26T19:53:52;4.40;;;2.93;;
173;SDS011;75;48.784;9.364;2023-02-26T19:56:37;5.03;;;3.20;;
173;SDS011;75;48.784;9.364;2023-02-26T19:59:22;4.63;;;3.00;;
173;SDS011;75;48.784;9.364;2023-02-26T20:02:07;5.07;;;3.57;;
173;SDS011;75;48.784;9.364;2023-02-26T20:04:52;5.40;;;3.20;;
173;SDS011;75;48.784;9.364;2023-02-26T20:07:37;4.10;;;3.20;;
173;SDS011;75;48.784;9.364;2023-02-26T20:10:21;6.30;;;3.90;;
173;SDS011;75;48.784;9.364;2023-02-26T20:13:07;4.10;;;3.17;;
173;SDS011;75;48.784;9.364;2023-02-26T20:15:51;7.80;;;3.30;;
173;SDS011;75;48.784;9.364;2023-02-26T20:18:36;4.20;;;2.80;;
173;SDS011;75;48.784;9.364;2023-02-26T20:21:21;6.50;;;4.13;;
173;SDS011;75;48.784;9.364;2023-02-26T20:24:06;7.20;;;3.03;;
173;SDS011;75;48.784;9.364;2023-02-26T20:26:50;5.33;;;3.30;;
173;SDS011;75;48.784;9.364;2023-02-26T20:29:35;4.83;;;2.70;;
173;SDS011;75;48.784;9.364;2023-02-26T20:32:20;5.20;;;3.07;;
173;SDS011;75;48.784;9.364;2023-02-26T20:35:06;5.53;;;3.17;;
173;SDS011;75;48.784;9.364;2023-02-26T20:37:51;5.40;;;3.00;;
173;SDS011;75;48.784;9.364;2023-02-26T20:40:35;5.70;;;3.93;;
173;SDS011;75;48.784;9.364;2023-02-26T20:43:20;7.47;;;5.20;;
173;SDS011;75;48.784;9.364;2023-02-26T20:46:04;4.73;;;3.20;;
173;SDS011;75;48.784;9.364;2023-02-26T20:48:49;5.17;;;3.10;;
173;SDS011;75;48.784;9.364;2023-02-26T20:51:34;6.60;;;4.37;;
173;SDS011;75;48.784;9.364;2023-02-26T20:54:19;5.13;;;3.50;;